Bergitta — C6WM5 — position and weather

sailwx.info

Track history (hours):
 
Tides and Currents Weather Stations Pressure Air Temp Water Temp Dewpoint Dewpoint Depression Visibility Wind Speed Wind Dir Waves Ship Positions

Bergitta

Last reported at 2018-Apr-03 01:05 UTC. Time now 2018-Apr-24 12:48 UTC.
Position N 28°34' W 093°11'.
Warning: this ship's position is 21 days out of date.

Length 240 m; draft 9.5 m.

Type: Tanker. MMSI: 309234000.

Date/timePositionNaut miles runAvg speedWind from/ knotsBaromVisibWave heightAir tempDewpointWater temp
2018-Apr-03 01:05N 28°34' W 093°11'4912.9
2018-Apr-02 21:20N 29°16' W 093°39'310.3
2018-Apr-02 21:00N 29°19' W 093°40'611.6
2018-Apr-02 20:30N 29°25' W 093°39'1 1.1
2018-Apr-02 19:55N 29°26' W 093°39'0 0.1
2018-Apr-02 19:13N 29°26' W 093°38'0 0.3
2018-Apr-02 18:55N 29°26' W 093°38'1 2.6
2018-Apr-02 18:30N 29°26' W 093°40'3 5.4
2018-Apr-02 18:00N 29°28' W 093°40'612.6
2018-Apr-02 17:30N 29°33' W 093°45'612.6
2018-Apr-02 17:00N 29°38' W 093°49'612.4
2018-Apr-02 16:30N 29°44' W 093°52'4 8.6
2018-Apr-02 16:00N 29°46' W 093°56'4 8.1
2018-Apr-02 15:30N 29°50' W 093°57'3 7.0
2018-Apr-02 15:00N 29°53' W 093°55'4 8.0
2018-Apr-02 14:30N 29°56' W 093°52'3 5.6
2018-Apr-02 14:00N 29°59' W 093°53'3 6.6
2018-Apr-02 13:30N 29°60' W 093°57'0 0.4
2018-Apr-02 13:00N 29°60' W 093°56'0 0.1
2018-Apr-02 12:30N 29°60' W 093°56'0 0.0
2018-Apr-02 11:59N 29°60' W 093°56'0 0.0
2018-Apr-02 11:29N 29°60' W 093°56'0 0.0
2018-Apr-02 10:59N 29°60' W 093°56'0 0.0
2018-Apr-02 10:29N 29°60' W 093°56'0 0.0
2018-Apr-02 09:59N 29°60' W 093°56'0 0.0
2018-Apr-02 09:29N 29°60' W 093°56'0 0.0
2018-Apr-02 08:59N 29°60' W 093°56'0 0.0
2018-Apr-02 08:29N 29°60' W 093°56'0 0.0
2018-Apr-02 07:59N 29°60' W 093°56'0 0.0
2018-Apr-02 07:29N 29°60' W 093°56'0 0.0
2018-Apr-02 06:59N 29°60' W 093°56'0 0.0
2018-Apr-02 06:29N 29°60' W 093°56'0 0.0
2018-Apr-02 05:59N 29°60' W 093°56'0 0.0
2018-Apr-02 05:29N 29°60' W 093°56'0 0.0
2018-Apr-02 04:59N 29°60' W 093°56'0 0.0
2018-Apr-02 04:29N 29°60' W 093°56'0 0.0
2018-Apr-02 03:59N 29°60' W 093°56'0 0.0
2018-Apr-02 03:29N 29°60' W 093°56'0 0.0
2018-Apr-02 02:59N 29°60' W 093°56'0 0.0
2018-Apr-02 02:29N 29°60' W 093°56'0 0.0
2018-Apr-02 01:59N 29°60' W 093°56'0 0.0
2018-Apr-02 01:29N 29°60' W 093°56'0 0.0
2018-Apr-02 00:59N 29°60' W 093°56'0 0.0
2018-Apr-02 00:29N 29°60' W 093°56'0 0.0
2018-Apr-01 23:59N 29°60' W 093°56'0 0.0
2018-Apr-01 23:29N 29°60' W 093°56'0 0.0
2018-Apr-01 22:59N 29°60' W 093°56'0 0.0
2018-Apr-01 22:29N 29°60' W 093°56'0 0.0
2018-Apr-01 21:59N 29°60' W 093°56'0 0.0
2018-Apr-01 21:29N 29°60' W 093°56'0 0.0
2018-Apr-01 20:59N 29°60' W 093°56'0 0.0
2018-Apr-01 20:29N 29°60' W 093°56'0 0.0
2018-Apr-01 19:59N 29°60' W 093°56'0 0.0
2018-Apr-01 19:29N 29°60' W 093°56'0 0.0
2018-Apr-01 18:59N 29°60' W 093°56'0 0.0
2018-Apr-01 18:29N 29°60' W 093°56'0 0.0
2018-Apr-01 17:59N 29°60' W 093°56'0 0.0
2018-Apr-01 17:29N 29°60' W 093°56'0 0.0
2018-Apr-01 16:59N 29°60' W 093°56'0 0.0
2018-Apr-01 16:29N 29°60' W 093°56'0 0.0
2018-Apr-01 15:59N 29°60' W 093°56'0 0.0
2018-Apr-01 15:29N 29°60' W 093°56'0 0.0
2018-Apr-01 14:59N 29°60' W 093°56'0 0.0
2018-Apr-01 14:29N 29°60' W 093°56'0 0.0
2018-Apr-01 13:56N 29°60' W 093°56'0 0.0
2018-Apr-01 13:29N 29°60' W 093°56'0 0.0
2018-Apr-01 12:59N 29°60' W 093°56'0 0.0
2018-Apr-01 12:29N 29°60' W 093°56'0 0.0
2018-Apr-01 11:59N 29°60' W 093°56'0 0.0
2018-Apr-01 11:29N 29°60' W 093°56'0 0.0
2018-Apr-01 10:59N 29°60' W 093°56'0 0.0
2018-Apr-01 10:29N 29°60' W 093°56'0 0.0
2018-Apr-01 09:59N 29°60' W 093°56'0 0.1
2018-Apr-01 09:29N 29°60' W 093°56'0 0.1
2018-Apr-01 08:59N 29°60' W 093°56'0 0.0
2018-Apr-01 08:29N 29°60' W 093°56'0 0.0
2018-Apr-01 07:59N 29°60' W 093°56'0 0.0
2018-Apr-01 07:29N 29°60' W 093°56'0 0.0
2018-Apr-01 06:59N 29°60' W 093°56'0 0.0
2018-Apr-01 06:29N 29°60' W 093°56'0 0.0
2018-Apr-01 05:59N 29°60' W 093°56'0 0.0
2018-Apr-01 05:29N 29°60' W 093°56'0 0.0
2018-Apr-01 04:59N 29°60' W 093°56'0 0.0
2018-Apr-01 04:29N 29°60' W 093°56'0 0.0
2018-Apr-01 03:59N 29°60' W 093°56'0 0.0
2018-Apr-01 03:29N 29°60' W 093°56'0 0.0
2018-Apr-01 02:59N 29°60' W 093°56'0 0.0
2018-Apr-01 02:29N 29°60' W 093°56'0 0.0
2018-Apr-01 01:59N 29°60' W 093°56'0 0.0
2018-Apr-01 01:29N 29°60' W 093°56'0 0.0
2018-Apr-01 00:59N 29°60' W 093°56'0 0.0
2018-Apr-01 00:29N 29°60' W 093°56'0 0.0
2018-Mar-31 23:59N 29°60' W 093°56'0 0.0
2018-Mar-31 23:29N 29°60' W 093°56'0 0.0
2018-Mar-31 22:56N 29°60' W 093°56'0 0.0
2018-Mar-31 22:29N 29°60' W 093°56'0 0.0
2018-Mar-31 21:59N 29°60' W 093°56'0 0.0
2018-Mar-31 21:29N 29°60' W 093°56'0 0.0
2018-Mar-31 20:59N 29°60' W 093°56'0 0.0
2018-Mar-31 20:29N 29°60' W 093°56'0 0.0
2018-Mar-31 19:59N 29°60' W 093°56'0 0.0
2018-Mar-31 19:29N 29°60' W 093°56'0 0.0
2018-Mar-31 18:59N 29°60' W 093°56'0 0.0
2018-Mar-31 18:29N 29°60' W 093°56'0 0.0
2018-Mar-31 17:59N 29°60' W 093°56'0 0.0
2018-Mar-31 17:29N 29°60' W 093°56'0 0.0
2018-Mar-31 16:59N 29°60' W 093°56'0 0.0
2018-Mar-31 16:29N 29°60' W 093°56'0 0.0
2018-Mar-31 16:00N 29°60' W 093°56'1 1.9
2018-Mar-31 15:30N 29°59' W 093°55'3 5.8
2018-Mar-31 15:00N 29°59' W 093°52'3 5.7
2018-Mar-31 14:30N 29°56' W 093°52'3 6.4
2018-Mar-31 14:00N 29°53' W 093°55'4 7.5
2018-Mar-31 13:30N 29°50' W 093°57'4 7.2
2018-Mar-31 13:00N 29°47' W 093°57'4 7.4
2018-Mar-31 12:30N 29°45' W 093°53'4 7.8
2018-Mar-31 12:00N 29°42' W 093°50'611.0
2018-Mar-31 11:30N 29°36' W 093°49'612.0
2018-Mar-31 11:00N 29°32' W 093°44'611.0
2018-Mar-31 10:30N 29°28' W 093°40'5 9.2
2018-Mar-31 09:59N 29°23' W 093°41'2 3.7
2018-Mar-31 09:30N 29°21' W 093°41'1 2.4
2018-Mar-31 09:00N 29°20' W 093°42'0 0.2
2018-Mar-31 08:26N 29°20' W 093°42'0 0.0
2018-Mar-31 07:47N 29°20' W 093°42'0 0.0
2018-Mar-31 07:20N 29°20' W 093°42'0 0.0
2018-Mar-31 06:56N 29°20' W 093°42'0 0.0
2018-Mar-31 06:14N 29°20' W 093°42'0 0.0
2018-Mar-31 05:59N 29°20' W 093°42'0 0.0
2018-Mar-31 04:38N 29°20' W 093°42'0 0.0
2018-Mar-31 04:20N 29°20' W 093°42'0 0.0
2018-Mar-31 03:56N 29°20' W 093°42'0 0.0
2018-Mar-31 02:56N 29°20' W 093°42'0 0.0
2018-Mar-31 02:14N 29°20' W 093°42'0 0.0
2018-Mar-31 01:50N 29°20' W 093°42'0 0.0
2018-Mar-31 01:14N 29°20' W 093°42'0 0.0
2018-Mar-31 00:56N 29°20' W 093°42'0 0.0
2018-Mar-31 00:29N 29°20' W 093°42'0 0.1
2018-Mar-30 23:56N 29°20' W 093°42'0 0.5
2018-Mar-30 23:20N 29°20' W 093°41'1 3.4
2018-Mar-30 22:59N 29°19' W 093°41'16 9.5
2018-Mar-30 21:17N 29°04' W 093°47'512.5
2018-Mar-30 20:52N 28°60' W 093°51'512.5
2018-Mar-30 20:30N 28°56' W 093°54'712.7
2018-Mar-30 19:57N 28°51' W 093°59'612.4
2018-Mar-30 19:29N 28°48' W 094°05'712.6
2018-Mar-30 18:55N 28°46' W 094°13'612.6
2018-Mar-30 18:25N 28°43' W 094°19'27 2.5
2018-Mar-30 07:40N 28°38' W 094°50'0 0.7
2018-Mar-30 07:27N 28°38' W 094°50'0 0.6
2018-Mar-30 06:59N 28°38' W 094°49'0 0.6
2018-Mar-30 06:30N 28°38' W 094°49'0 0.5
2018-Mar-30 05:59N 28°38' W 094°49'0 0.5
2018-Mar-30 05:25N 28°38' W 094°48'0 0.5
2018-Mar-30 05:01N 28°38' W 094°48'0 0.6
2018-Mar-30 04:30N 28°38' W 094°48'0 0.6
2018-Mar-30 03:56N 28°38' W 094°47'0 0.3
2018-Mar-30 03:24N 28°38' W 094°47'0 0.3
2018-Mar-30 02:57N 28°38' W 094°47'0 0.9
2018-Mar-30 02:28N 28°38' W 094°47'1 1.7
2018-Mar-30 01:53N 28°38' W 094°46'1 2.3
2018-Mar-30 01:27N 28°37' W 094°45'2 3.6
2018-Mar-30 00:59N 28°36' W 094°43'4 4.9
2018-Mar-30 00:16N 28°36' W 094°39'2 5.1
2018-Mar-29 23:56N 28°36' W 094°37'2 5.3
2018-Mar-29 23:29N 28°36' W 094°34'3 7.0
2018-Mar-29 23:00N 28°38' W 094°31'2 3.9
2018-Mar-29 22:30N 28°40' W 094°31'1 1.2
2018-Mar-29 21:59N 28°39' W 094°31'1 2.4
2018-Mar-29 21:31N 28°38' W 094°31'0 0.4
2018-Mar-29 21:00N 28°38' W 094°31'3 5.1
2018-Mar-29 20:30N 28°41' W 094°31'2 3.7
2018-Mar-29 19:59N 28°42' W 094°32'1 2.4
2018-Mar-29 19:27N 28°44' W 094°33'3 6.4
2018-Mar-29 18:59N 28°46' W 094°34'2 4.0
2018-Mar-29 18:30N 28°47' W 094°36'1 1.4
2018-Mar-29 17:57N 28°47' W 094°36'1 1.4
2018-Mar-29 17:30N 28°46' W 094°36'1 1.5
2018-Mar-29 17:00N 28°45' W 094°35'1 1.6
2018-Mar-29 16:23N 28°44' W 094°35'1 1.7
2018-Mar-29 15:56N 28°44' W 094°34'1 1.8
2018-Mar-29 15:28N 28°43' W 094°34'1 1.9
2018-Mar-29 14:59N 28°42' W 094°33'1 2.0
2018-Mar-29 14:31N 28°42' W 094°32'1 1.7
2018-Mar-29 13:56N 28°41' W 094°31'1 1.7
2018-Mar-29 13:25N 28°41' W 094°30'1 1.5
2018-Mar-29 12:56N 28°41' W 094°29'2 3.2
2018-Mar-29 12:24N 28°40' W 094°28'10 3.0
2018-Mar-29 08:54N 28°36' W 094°17'2 0.2
2018-Mar-29 01:44N 28°35' W 094°15'0 0.0
2018-Mar-28 11:53N 28°35' W 094°15'0 0.0
2018-Mar-28 11:20N 28°35' W 094°15'0 0.0
2018-Mar-27 22:05N 28°35' W 094°15'0 0.6
2018-Mar-27 21:56N 28°35' W 094°15'0 0.1
2018-Mar-27 21:29N 28°35' W 094°15'0 0.0
2018-Mar-27 20:14N 28°35' W 094°15'0 0.1
2018-Mar-27 19:56N 28°35' W 094°15'0 0.0
2018-Mar-27 19:29N 28°35' W 094°15'0 0.1
2018-Mar-27 18:59N 28°35' W 094°15'0 0.0
2018-Mar-27 09:44N 28°35' W 094°15'0 0.0
2018-Mar-27 09:29N 28°35' W 094°15'0 0.0
2018-Mar-27 07:05N 28°35' W 094°15'0 0.2
2018-Mar-27 06:56N 28°35' W 094°15'0 0.2
2018-Mar-27 06:26N 28°35' W 094°15'0 0.0
2018-Mar-27 05:44N 28°35' W 094°15'0 0.3
2018-Mar-27 05:29N 28°35' W 094°15'0 0.2
2018-Mar-27 04:56N 28°35' W 094°15'0 0.0
2018-Mar-27 04:14N 28°35' W 094°15'0 0.0
2018-Mar-27 03:50N 28°35' W 094°15'0 0.0
2018-Mar-27 03:29N 28°35' W 094°15'0 0.1
2018-Mar-27 02:50N 28°35' W 094°15'0 0.0
2018-Mar-27 02:26N 28°35' W 094°15'0 0.1
2018-Mar-27 01:50N 28°35' W 094°15'0 0.0
2018-Mar-27 00:38N 28°35' W 094°15'0 0.6
2018-Mar-27 00:29N 28°35' W 094°15'0 0.0
2018-Mar-26 23:11N 28°35' W 094°15'6 2.4
2018-Mar-26 20:47N 28°40' W 094°11'511.9
2018-Mar-26 20:21N 28°44' W 094°07'513.1
2018-Mar-26 19:57N 28°47' W 094°03'613.1
2018-Mar-26 19:28N 28°52' W 093°58'913.5
2018-Mar-26 18:48N 28°58' W 093°51'414.0
2018-Mar-26 18:29N 29°01' W 093°47'713.7
2018-Mar-26 17:59N 29°07' W 093°42'712.9
2018-Mar-26 17:26N 29°14' W 093°40'410.4
2018-Mar-26 17:01N 29°18' W 093°40'711.2
2018-Mar-26 16:22N 29°25' W 093°41'3 9.2
2018-Mar-26 16:00N 29°29' W 093°40'612.5
2018-Mar-26 15:31N 29°33' W 093°45'612.5
2018-Mar-26 15:00N 29°38' W 093°49'611.1
2018-Mar-26 14:31N 29°43' W 093°52'4 7.7
2018-Mar-26 14:00N 29°46' W 093°55'4 8.3
2018-Mar-26 13:30N 29°49' W 093°58'0 0.5
2018-Mar-26 13:00N 29°49' W 093°57'0 0.0
2018-Mar-26 12:28N 29°49' W 093°57'0 0.0
2018-Mar-26 11:58N 29°49' W 093°57'0 0.0
2018-Mar-26 11:28N 29°49' W 093°57'0 0.0
2018-Mar-26 10:58N 29°49' W 093°57'0 0.0
2018-Mar-26 10:28N 29°49' W 093°57'0 0.0
2018-Mar-26 09:58N 29°49' W 093°57'0 0.0
2018-Mar-26 09:28N 29°49' W 093°57'0 0.0
2018-Mar-26 08:58N 29°49' W 093°57'0 0.0
2018-Mar-26 08:28N 29°49' W 093°57'0 0.0
2018-Mar-26 07:58N 29°49' W 093°57'0 0.0
2018-Mar-26 07:28N 29°49' W 093°57'0 0.0
2018-Mar-26 06:58N 29°49' W 093°57'0 0.0
2018-Mar-26 06:28N 29°49' W 093°57'0 0.0
2018-Mar-26 05:58N 29°49' W 093°57'0 0.0
2018-Mar-26 05:28N 29°49' W 093°57'0 0.0
2018-Mar-26 04:58N 29°49' W 093°57'0 0.0
2018-Mar-26 04:28N 29°49' W 093°57'0 0.0
2018-Mar-26 03:58N 29°49' W 093°57'0 0.0
2018-Mar-26 03:28N 29°49' W 093°57'0 0.0
2018-Mar-26 02:58N 29°49' W 093°57'0 0.0
2018-Mar-26 02:28N 29°49' W 093°57'0 0.0
2018-Mar-26 01:58N 29°49' W 093°57'0 0.0
2018-Mar-26 01:28N 29°49' W 093°57'0 0.0
2018-Mar-26 00:58N 29°49' W 093°57'0 0.0
2018-Mar-26 00:28N 29°49' W 093°57'0 0.0
2018-Mar-25 23:58N 29°49' W 093°57'0 0.0
2018-Mar-25 23:28N 29°49' W 093°57'0 0.0
2018-Mar-25 22:58N 29°49' W 093°57'0 0.0
2018-Mar-25 22:28N 29°49' W 093°57'0 0.0
2018-Mar-25 21:58N 29°49' W 093°57'0 0.0
2018-Mar-25 21:28N 29°49' W 093°57'0 0.0
2018-Mar-25 20:58N 29°49' W 093°57'0 0.0
2018-Mar-25 20:28N 29°49' W 093°57'0 0.0
2018-Mar-25 19:58N 29°49' W 093°57'0 0.0
2018-Mar-25 19:28N 29°49' W 093°57'0 0.0
2018-Mar-25 18:58N 29°49' W 093°57'0 0.0
2018-Mar-25 18:28N 29°49' W 093°57'0 0.0
2018-Mar-25 17:58N 29°49' W 093°57'0 0.0
2018-Mar-25 17:28N 29°49' W 093°57'0 0.0
2018-Mar-25 16:58N 29°49' W 093°57'0 0.0
2018-Mar-25 16:28N 29°49' W 093°57'0 0.0
2018-Mar-25 15:58N 29°49' W 093°57'0 0.0
2018-Mar-25 15:28N 29°49' W 093°57'0 0.0
2018-Mar-25 14:58N 29°49' W 093°57'0 0.0
2018-Mar-25 14:28N 29°49' W 093°57'0 0.0
2018-Mar-25 13:58N 29°49' W 093°57'0 0.0
2018-Mar-25 13:28N 29°49' W 093°57'0 0.0
2018-Mar-25 12:58N 29°49' W 093°57'0 0.0
2018-Mar-25 12:28N 29°49' W 093°57'0 0.0
2018-Mar-25 11:58N 29°49' W 093°57'0 0.0
2018-Mar-25 11:28N 29°49' W 093°57'0 0.0
2018-Mar-25 10:58N 29°49' W 093°57'0 0.0
2018-Mar-25 10:28N 29°49' W 093°57'0 0.0
2018-Mar-25 09:58N 29°49' W 093°57'0 0.0
2018-Mar-25 09:28N 29°49' W 093°57'0 0.0
2018-Mar-25 08:58N 29°49' W 093°57'0 0.0
2018-Mar-25 08:28N 29°49' W 093°57'0 0.0
2018-Mar-25 07:58N 29°49' W 093°57'0 0.0
2018-Mar-25 07:28N 29°49' W 093°57'0 0.0
2018-Mar-25 06:58N 29°49' W 093°57'0 0.0
2018-Mar-25 06:28N 29°49' W 093°57'0 0.0
2018-Mar-25 05:58N 29°49' W 093°57'0 0.0
2018-Mar-25 05:28N 29°49' W 093°57'0 0.0
2018-Mar-25 04:58N 29°49' W 093°57'0 0.0
2018-Mar-25 04:28N 29°49' W 093°57'0 0.0
2018-Mar-25 03:58N 29°49' W 093°57'0 0.0
2018-Mar-25 03:28N 29°49' W 093°57'0 0.0
2018-Mar-25 02:58N 29°49' W 093°57'0 0.0
2018-Mar-25 02:28N 29°49' W 093°57'0 0.0
2018-Mar-25 01:58N 29°49' W 093°57'0 0.0
2018-Mar-25 01:28N 29°49' W 093°57'0 0.0
2018-Mar-25 00:58N 29°49' W 093°57'0 0.0
2018-Mar-25 00:28N 29°49' W 093°57'0 0.0
2018-Mar-24 23:58N 29°49' W 093°57'0 0.0
2018-Mar-24 23:28N 29°49' W 093°57'0 0.0
2018-Mar-24 22:58N 29°49' W 093°57'0 0.0
2018-Mar-24 22:28N 29°49' W 093°57'0 0.0
2018-Mar-24 21:58N 29°49' W 093°57'0 0.0
2018-Mar-24 21:28N 29°49' W 093°57'0 0.0
2018-Mar-24 20:58N 29°49' W 093°57'0 0.0
2018-Mar-24 20:28N 29°49' W 093°57'0 0.0
2018-Mar-24 19:58N 29°49' W 093°57'0 0.0
2018-Mar-24 19:28N 29°49' W 093°57'0 0.1
2018-Mar-24 19:00N 29°49' W 093°57'1 2.8
2018-Mar-24 18:30N 29°48' W 093°57'4 7.5
2018-Mar-24 18:00N 29°46' W 093°54'4 8.7
2018-Mar-24 17:30N 29°42' W 093°51'510.2
2018-Mar-24 17:00N 29°37' W 093°49'611.0
2018-Mar-24 16:30N 29°33' W 093°45'510.8
2018-Mar-24 16:00N 29°29' W 093°40'5 9.5
2018-Mar-24 15:28N 29°24' W 093°39'0 0.3
2018-Mar-24 13:57N 29°24' W 093°38'0 0.0
2018-Mar-24 13:06N 29°24' W 093°38'0 0.0
2018-Mar-24 12:00N 29°24' W 093°38'0 0.0
2018-Mar-24 11:24N 29°24' W 093°38'0 0.0
2018-Mar-24 11:00N 29°24' W 093°38'0 0.0
2018-Mar-24 08:51N 29°24' W 093°38'0 0.0
2018-Mar-24 08:15N 29°24' W 093°38'0 0.0
2018-Mar-24 07:54N 29°24' W 093°38'  
Track history (hours):
 
Tides and Currents Weather Stations Pressure Air Temp Water Temp Dewpoint Dewpoint Depression Visibility Wind Speed Wind Dir Waves Ship Positions

Bergitta

Last reported at 2018-Apr-03 01:05 UTC. Time now 2018-Apr-24 12:48 UTC.
Position N 28°34' W 093°11'.
Warning: this ship's position is 21 days out of date.

Length 240 m; draft 9.5 m.

Type: Tanker. MMSI: 309234000.

Date/timePositionNaut miles runAvg speedWind from/ knotsBaromVisibWave heightAir tempDewpointWater temp
2018-Apr-03 01:05N 28°34' W 093°11'4912.9
2018-Apr-02 21:20N 29°16' W 093°39'310.3
2018-Apr-02 21:00N 29°19' W 093°40'611.6
2018-Apr-02 20:30N 29°25' W 093°39'1 1.1
2018-Apr-02 19:55N 29°26' W 093°39'0 0.1
2018-Apr-02 19:13N 29°26' W 093°38'0 0.3
2018-Apr-02 18:55N 29°26' W 093°38'1 2.6
2018-Apr-02 18:30N 29°26' W 093°40'3 5.4
2018-Apr-02 18:00N 29°28' W 093°40'612.6
2018-Apr-02 17:30N 29°33' W 093°45'612.6
2018-Apr-02 17:00N 29°38' W 093°49'612.4
2018-Apr-02 16:30N 29°44' W 093°52'4 8.6
2018-Apr-02 16:00N 29°46' W 093°56'4 8.1
2018-Apr-02 15:30N 29°50' W 093°57'3 7.0
2018-Apr-02 15:00N 29°53' W 093°55'4 8.0
2018-Apr-02 14:30N 29°56' W 093°52'3 5.6
2018-Apr-02 14:00N 29°59' W 093°53'3 6.6
2018-Apr-02 13:30N 29°60' W 093°57'0 0.4
2018-Apr-02 13:00N 29°60' W 093°56'0 0.1
2018-Apr-02 12:30N 29°60' W 093°56'0 0.0
2018-Apr-02 11:59N 29°60' W 093°56'0 0.0
2018-Apr-02 11:29N 29°60' W 093°56'0 0.0
2018-Apr-02 10:59N 29°60' W 093°56'0 0.0
2018-Apr-02 10:29N 29°60' W 093°56'0 0.0
2018-Apr-02 09:59N 29°60' W 093°56'0 0.0
2018-Apr-02 09:29N 29°60' W 093°56'0 0.0
2018-Apr-02 08:59N 29°60' W 093°56'0 0.0
2018-Apr-02 08:29N 29°60' W 093°56'0 0.0
2018-Apr-02 07:59N 29°60' W 093°56'0 0.0
2018-Apr-02 07:29N 29°60' W 093°56'0 0.0
2018-Apr-02 06:59N 29°60' W 093°56'0 0.0
2018-Apr-02 06:29N 29°60' W 093°56'0 0.0
2018-Apr-02 05:59N 29°60' W 093°56'0 0.0
2018-Apr-02 05:29N 29°60' W 093°56'0 0.0
2018-Apr-02 04:59N 29°60' W 093°56'0 0.0
2018-Apr-02 04:29N 29°60' W 093°56'0 0.0
2018-Apr-02 03:59N 29°60' W 093°56'0 0.0
2018-Apr-02 03:29N 29°60' W 093°56'0 0.0
2018-Apr-02 02:59N 29°60' W 093°56'0 0.0
2018-Apr-02 02:29N 29°60' W 093°56'0 0.0
2018-Apr-02 01:59N 29°60' W 093°56'0 0.0
2018-Apr-02 01:29N 29°60' W 093°56'0 0.0
2018-Apr-02 00:59N 29°60' W 093°56'0 0.0
2018-Apr-02 00:29N 29°60' W 093°56'0 0.0
2018-Apr-01 23:59N 29°60' W 093°56'0 0.0
2018-Apr-01 23:29N 29°60' W 093°56'0 0.0
2018-Apr-01 22:59N 29°60' W 093°56'0 0.0
2018-Apr-01 22:29N 29°60' W 093°56'0 0.0
2018-Apr-01 21:59N 29°60' W 093°56'0 0.0
2018-Apr-01 21:29N 29°60' W 093°56'0 0.0
2018-Apr-01 20:59N 29°60' W 093°56'0 0.0
2018-Apr-01 20:29N 29°60' W 093°56'0 0.0
2018-Apr-01 19:59N 29°60' W 093°56'0 0.0
2018-Apr-01 19:29N 29°60' W 093°56'0 0.0
2018-Apr-01 18:59N 29°60' W 093°56'0 0.0
2018-Apr-01 18:29N 29°60' W 093°56'0 0.0
2018-Apr-01 17:59N 29°60' W 093°56'0 0.0
2018-Apr-01 17:29N 29°60' W 093°56'0 0.0
2018-Apr-01 16:59N 29°60' W 093°56'0 0.0
2018-Apr-01 16:29N 29°60' W 093°56'0 0.0
2018-Apr-01 15:59N 29°60' W 093°56'0 0.0
2018-Apr-01 15:29N 29°60' W 093°56'0 0.0
2018-Apr-01 14:59N 29°60' W 093°56'0 0.0
2018-Apr-01 14:29N 29°60' W 093°56'0 0.0
2018-Apr-01 13:56N 29°60' W 093°56'0 0.0
2018-Apr-01 13:29N 29°60' W 093°56'0 0.0
2018-Apr-01 12:59N 29°60' W 093°56'0 0.0
2018-Apr-01 12:29N 29°60' W 093°56'0 0.0
2018-Apr-01 11:59N 29°60' W 093°56'0 0.0
2018-Apr-01 11:29N 29°60' W 093°56'0 0.0
2018-Apr-01 10:59N 29°60' W 093°56'0 0.0
2018-Apr-01 10:29N 29°60' W 093°56'0 0.0
2018-Apr-01 09:59N 29°60' W 093°56'0 0.1
2018-Apr-01 09:29N 29°60' W 093°56'0 0.1
2018-Apr-01 08:59N 29°60' W 093°56'0 0.0
2018-Apr-01 08:29N 29°60' W 093°56'0 0.0
2018-Apr-01 07:59N 29°60' W 093°56'0 0.0
2018-Apr-01 07:29N 29°60' W 093°56'0 0.0
2018-Apr-01 06:59N 29°60' W 093°56'0 0.0
2018-Apr-01 06:29N 29°60' W 093°56'0 0.0
2018-Apr-01 05:59N 29°60' W 093°56'0 0.0
2018-Apr-01 05:29N 29°60' W 093°56'0 0.0
2018-Apr-01 04:59N 29°60' W 093°56'0 0.0
2018-Apr-01 04:29N 29°60' W 093°56'0 0.0
2018-Apr-01 03:59N 29°60' W 093°56'0 0.0
2018-Apr-01 03:29N 29°60' W 093°56'0 0.0
2018-Apr-01 02:59N 29°60' W 093°56'0 0.0
2018-Apr-01 02:29N 29°60' W 093°56'0 0.0
2018-Apr-01 01:59N 29°60' W 093°56'0 0.0
2018-Apr-01 01:29N 29°60' W 093°56'0 0.0
2018-Apr-01 00:59N 29°60' W 093°56'0 0.0
2018-Apr-01 00:29N 29°60' W 093°56'0 0.0
2018-Mar-31 23:59N 29°60' W 093°56'0 0.0
2018-Mar-31 23:29N 29°60' W 093°56'0 0.0
2018-Mar-31 22:56N 29°60' W 093°56'0 0.0
2018-Mar-31 22:29N 29°60' W 093°56'0 0.0
2018-Mar-31 21:59N 29°60' W 093°56'0 0.0
2018-Mar-31 21:29N 29°60' W 093°56'0 0.0
2018-Mar-31 20:59N 29°60' W 093°56'0 0.0
2018-Mar-31 20:29N 29°60' W 093°56'0 0.0
2018-Mar-31 19:59N 29°60' W 093°56'0 0.0
2018-Mar-31 19:29N 29°60' W 093°56'0 0.0
2018-Mar-31 18:59N 29°60' W 093°56'0 0.0
2018-Mar-31 18:29N 29°60' W 093°56'0 0.0
2018-Mar-31 17:59N 29°60' W 093°56'0 0.0
2018-Mar-31 17:29N 29°60' W 093°56'0 0.0
2018-Mar-31 16:59N 29°60' W 093°56'0 0.0
2018-Mar-31 16:29N 29°60' W 093°56'0 0.0
2018-Mar-31 16:00N 29°60' W 093°56'1 1.9
2018-Mar-31 15:30N 29°59' W 093°55'3 5.8
2018-Mar-31 15:00N 29°59' W 093°52'3 5.7
2018-Mar-31 14:30N 29°56' W 093°52'3 6.4
2018-Mar-31 14:00N 29°53' W 093°55'4 7.5
2018-Mar-31 13:30N 29°50' W 093°57'4 7.2
2018-Mar-31 13:00N 29°47' W 093°57'4 7.4
2018-Mar-31 12:30N 29°45' W 093°53'4 7.8
2018-Mar-31 12:00N 29°42' W 093°50'611.0
2018-Mar-31 11:30N 29°36' W 093°49'612.0
2018-Mar-31 11:00N 29°32' W 093°44'611.0
2018-Mar-31 10:30N 29°28' W 093°40'5 9.2
2018-Mar-31 09:59N 29°23' W 093°41'2 3.7
2018-Mar-31 09:30N 29°21' W 093°41'1 2.4
2018-Mar-31 09:00N 29°20' W 093°42'0 0.2
2018-Mar-31 08:26N 29°20' W 093°42'0 0.0
2018-Mar-31 07:47N 29°20' W 093°42'0 0.0
2018-Mar-31 07:20N 29°20' W 093°42'0 0.0
2018-Mar-31 06:56N 29°20' W 093°42'0 0.0
2018-Mar-31 06:14N 29°20' W 093°42'0 0.0
2018-Mar-31 05:59N 29°20' W 093°42'0 0.0
2018-Mar-31 04:38N 29°20' W 093°42'0 0.0
2018-Mar-31 04:20N 29°20' W 093°42'0 0.0
2018-Mar-31 03:56N 29°20' W 093°42'0 0.0
2018-Mar-31 02:56N 29°20' W 093°42'0 0.0
2018-Mar-31 02:14N 29°20' W 093°42'0 0.0
2018-Mar-31 01:50N 29°20' W 093°42'0 0.0
2018-Mar-31 01:14N 29°20' W 093°42'0 0.0
2018-Mar-31 00:56N 29°20' W 093°42'0 0.0
2018-Mar-31 00:29N 29°20' W 093°42'0 0.1
2018-Mar-30 23:56N 29°20' W 093°42'0 0.5
2018-Mar-30 23:20N 29°20' W 093°41'1 3.4
2018-Mar-30 22:59N 29°19' W 093°41'16 9.5
2018-Mar-30 21:17N 29°04' W 093°47'512.5
2018-Mar-30 20:52N 28°60' W 093°51'512.5
2018-Mar-30 20:30N 28°56' W 093°54'712.7
2018-Mar-30 19:57N 28°51' W 093°59'612.4
2018-Mar-30 19:29N 28°48' W 094°05'712.6
2018-Mar-30 18:55N 28°46' W 094°13'612.6
2018-Mar-30 18:25N 28°43' W 094°19'27 2.5
2018-Mar-30 07:40N 28°38' W 094°50'0 0.7
2018-Mar-30 07:27N 28°38' W 094°50'0 0.6
2018-Mar-30 06:59N 28°38' W 094°49'0 0.6
2018-Mar-30 06:30N 28°38' W 094°49'0 0.5
2018-Mar-30 05:59N 28°38' W 094°49'0 0.5
2018-Mar-30 05:25N 28°38' W 094°48'0 0.5
2018-Mar-30 05:01N 28°38' W 094°48'0 0.6
2018-Mar-30 04:30N 28°38' W 094°48'0 0.6
2018-Mar-30 03:56N 28°38' W 094°47'0 0.3
2018-Mar-30 03:24N 28°38' W 094°47'0 0.3
2018-Mar-30 02:57N 28°38' W 094°47'0 0.9
2018-Mar-30 02:28N 28°38' W 094°47'1 1.7
2018-Mar-30 01:53N 28°38' W 094°46'1 2.3
2018-Mar-30 01:27N 28°37' W 094°45'2 3.6
2018-Mar-30 00:59N 28°36' W 094°43'4 4.9
2018-Mar-30 00:16N 28°36' W 094°39'2 5.1
2018-Mar-29 23:56N 28°36' W 094°37'2 5.3
2018-Mar-29 23:29N 28°36' W 094°34'3 7.0
2018-Mar-29 23:00N 28°38' W 094°31'2 3.9
2018-Mar-29 22:30N 28°40' W 094°31'1 1.2
2018-Mar-29 21:59N 28°39' W 094°31'1 2.4
2018-Mar-29 21:31N 28°38' W 094°31'0 0.4
2018-Mar-29 21:00N 28°38' W 094°31'3 5.1
2018-Mar-29 20:30N 28°41' W 094°31'2 3.7
2018-Mar-29 19:59N 28°42' W 094°32'1 2.4
2018-Mar-29 19:27N 28°44' W 094°33'3 6.4
2018-Mar-29 18:59N 28°46' W 094°34'2 4.0
2018-Mar-29 18:30N 28°47' W 094°36'1 1.4
2018-Mar-29 17:57N 28°47' W 094°36'1 1.4
2018-Mar-29 17:30N 28°46' W 094°36'1 1.5
2018-Mar-29 17:00N 28°45' W 094°35'1 1.6
2018-Mar-29 16:23N 28°44' W 094°35'1 1.7
2018-Mar-29 15:56N 28°44' W 094°34'1 1.8
2018-Mar-29 15:28N 28°43' W 094°34'1 1.9
2018-Mar-29 14:59N 28°42' W 094°33'1 2.0
2018-Mar-29 14:31N 28°42' W 094°32'1 1.7
2018-Mar-29 13:56N 28°41' W 094°31'1 1.7
2018-Mar-29 13:25N 28°41' W 094°30'1 1.5
2018-Mar-29 12:56N 28°41' W 094°29'2 3.2
2018-Mar-29 12:24N 28°40' W 094°28'10 3.0
2018-Mar-29 08:54N 28°36' W 094°17'2 0.2
2018-Mar-29 01:44N 28°35' W 094°15'0 0.0
2018-Mar-28 11:53N 28°35' W 094°15'0 0.0
2018-Mar-28 11:20N 28°35' W 094°15'0 0.0
2018-Mar-27 22:05N 28°35' W 094°15'0 0.6
2018-Mar-27 21:56N 28°35' W 094°15'0 0.1
2018-Mar-27 21:29N 28°35' W 094°15'0 0.0
2018-Mar-27 20:14N 28°35' W 094°15'0 0.1
2018-Mar-27 19:56N 28°35' W 094°15'0 0.0
2018-Mar-27 19:29N 28°35' W 094°15'0 0.1
2018-Mar-27 18:59N 28°35' W 094°15'0 0.0
2018-Mar-27 09:44N 28°35' W 094°15'0 0.0
2018-Mar-27 09:29N 28°35' W 094°15'0 0.0
2018-Mar-27 07:05N 28°35' W 094°15'0 0.2
2018-Mar-27 06:56N 28°35' W 094°15'0 0.2
2018-Mar-27 06:26N 28°35' W 094°15'0 0.0
2018-Mar-27 05:44N 28°35' W 094°15'0 0.3
2018-Mar-27 05:29N 28°35' W 094°15'0 0.2
2018-Mar-27 04:56N 28°35' W 094°15'0 0.0
2018-Mar-27 04:14N 28°35' W 094°15'0 0.0
2018-Mar-27 03:50N 28°35' W 094°15'0 0.0
2018-Mar-27 03:29N 28°35' W 094°15'0 0.1
2018-Mar-27 02:50N 28°35' W 094°15'0 0.0
2018-Mar-27 02:26N 28°35' W 094°15'0 0.1
2018-Mar-27 01:50N 28°35' W 094°15'0 0.0
2018-Mar-27 00:38N 28°35' W 094°15'0 0.6
2018-Mar-27 00:29N 28°35' W 094°15'0 0.0
2018-Mar-26 23:11N 28°35' W 094°15'6 2.4
2018-Mar-26 20:47N 28°40' W 094°11'511.9
2018-Mar-26 20:21N 28°44' W 094°07'513.1
2018-Mar-26 19:57N 28°47' W 094°03'613.1
2018-Mar-26 19:28N 28°52' W 093°58'913.5
2018-Mar-26 18:48N 28°58' W 093°51'414.0
2018-Mar-26 18:29N 29°01' W 093°47'713.7
2018-Mar-26 17:59N 29°07' W 093°42'712.9
2018-Mar-26 17:26N 29°14' W 093°40'410.4
2018-Mar-26 17:01N 29°18' W 093°40'711.2
2018-Mar-26 16:22N 29°25' W 093°41'3 9.2
2018-Mar-26 16:00N 29°29' W 093°40'612.5
2018-Mar-26 15:31N 29°33' W 093°45'612.5
2018-Mar-26 15:00N 29°38' W 093°49'611.1
2018-Mar-26 14:31N 29°43' W 093°52'4 7.7
2018-Mar-26 14:00N 29°46' W 093°55'4 8.3
2018-Mar-26 13:30N 29°49' W 093°58'0 0.5
2018-Mar-26 13:00N 29°49' W 093°57'0 0.0
2018-Mar-26 12:28N 29°49' W 093°57'0 0.0
2018-Mar-26 11:58N 29°49' W 093°57'0 0.0
2018-Mar-26 11:28N 29°49' W 093°57'0 0.0
2018-Mar-26 10:58N 29°49' W 093°57'0 0.0
2018-Mar-26 10:28N 29°49' W 093°57'0 0.0
2018-Mar-26 09:58N 29°49' W 093°57'0 0.0
2018-Mar-26 09:28N 29°49' W 093°57'0 0.0
2018-Mar-26 08:58N 29°49' W 093°57'0 0.0
2018-Mar-26 08:28N 29°49' W 093°57'0 0.0
2018-Mar-26 07:58N 29°49' W 093°57'0 0.0
2018-Mar-26 07:28N 29°49' W 093°57'0 0.0
2018-Mar-26 06:58N 29°49' W 093°57'0 0.0
2018-Mar-26 06:28N 29°49' W 093°57'0 0.0
2018-Mar-26 05:58N 29°49' W 093°57'0 0.0
2018-Mar-26 05:28N 29°49' W 093°57'0 0.0
2018-Mar-26 04:58N 29°49' W 093°57'0 0.0
2018-Mar-26 04:28N 29°49' W 093°57'0 0.0
2018-Mar-26 03:58N 29°49' W 093°57'0 0.0
2018-Mar-26 03:28N 29°49' W 093°57'0 0.0
2018-Mar-26 02:58N 29°49' W 093°57'0 0.0
2018-Mar-26 02:28N 29°49' W 093°57'0 0.0
2018-Mar-26 01:58N 29°49' W 093°57'0 0.0
2018-Mar-26 01:28N 29°49' W 093°57'0 0.0
2018-Mar-26 00:58N 29°49' W 093°57'0 0.0
2018-Mar-26 00:28N 29°49' W 093°57'0 0.0
2018-Mar-25 23:58N 29°49' W 093°57'0 0.0
2018-Mar-25 23:28N 29°49' W 093°57'0 0.0
2018-Mar-25 22:58N 29°49' W 093°57'0 0.0
2018-Mar-25 22:28N 29°49' W 093°57'0 0.0
2018-Mar-25 21:58N 29°49' W 093°57'0 0.0
2018-Mar-25 21:28N 29°49' W 093°57'0 0.0
2018-Mar-25 20:58N 29°49' W 093°57'0 0.0
2018-Mar-25 20:28N 29°49' W 093°57'0 0.0
2018-Mar-25 19:58N 29°49' W 093°57'0 0.0
2018-Mar-25 19:28N 29°49' W 093°57'0 0.0
2018-Mar-25 18:58N 29°49' W 093°57'0 0.0
2018-Mar-25 18:28N 29°49' W 093°57'0 0.0
2018-Mar-25 17:58N 29°49' W 093°57'0 0.0
2018-Mar-25 17:28N 29°49' W 093°57'0 0.0
2018-Mar-25 16:58N 29°49' W 093°57'0 0.0
2018-Mar-25 16:28N 29°49' W 093°57'0 0.0
2018-Mar-25 15:58N 29°49' W 093°57'0 0.0
2018-Mar-25 15:28N 29°49' W 093°57'0 0.0
2018-Mar-25 14:58N 29°49' W 093°57'0 0.0
2018-Mar-25 14:28N 29°49' W 093°57'0 0.0
2018-Mar-25 13:58N 29°49' W 093°57'0 0.0
2018-Mar-25 13:28N 29°49' W 093°57'0 0.0
2018-Mar-25 12:58N 29°49' W 093°57'0 0.0
2018-Mar-25 12:28N 29°49' W 093°57'0 0.0
2018-Mar-25 11:58N 29°49' W 093°57'0 0.0
2018-Mar-25 11:28N 29°49' W 093°57'0 0.0
2018-Mar-25 10:58N 29°49' W 093°57'0 0.0
2018-Mar-25 10:28N 29°49' W 093°57'0 0.0
2018-Mar-25 09:58N 29°49' W 093°57'0 0.0
2018-Mar-25 09:28N 29°49' W 093°57'0 0.0
2018-Mar-25 08:58N 29°49' W 093°57'0 0.0
2018-Mar-25 08:28N 29°49' W 093°57'0 0.0
2018-Mar-25 07:58N 29°49' W 093°57'0 0.0
2018-Mar-25 07:28N 29°49' W 093°57'0 0.0
2018-Mar-25 06:58N 29°49' W 093°57'0 0.0
2018-Mar-25 06:28N 29°49' W 093°57'0 0.0
2018-Mar-25 05:58N 29°49' W 093°57'0 0.0
2018-Mar-25 05:28N 29°49' W 093°57'0 0.0
2018-Mar-25 04:58N 29°49' W 093°57'0 0.0
2018-Mar-25 04:28N 29°49' W 093°57'0 0.0
2018-Mar-25 03:58N 29°49' W 093°57'0 0.0
2018-Mar-25 03:28N 29°49' W 093°57'0 0.0
2018-Mar-25 02:58N 29°49' W 093°57'0 0.0
2018-Mar-25 02:28N 29°49' W 093°57'0 0.0
2018-Mar-25 01:58N 29°49' W 093°57'0 0.0
2018-Mar-25 01:28N 29°49' W 093°57'0 0.0
2018-Mar-25 00:58N 29°49' W 093°57'0 0.0
2018-Mar-25 00:28N 29°49' W 093°57'0 0.0
2018-Mar-24 23:58N 29°49' W 093°57'0 0.0
2018-Mar-24 23:28N 29°49' W 093°57'0 0.0
2018-Mar-24 22:58N 29°49' W 093°57'0 0.0
2018-Mar-24 22:28N 29°49' W 093°57'0 0.0
2018-Mar-24 21:58N 29°49' W 093°57'0 0.0
2018-Mar-24 21:28N 29°49' W 093°57'0 0.0
2018-Mar-24 20:58N 29°49' W 093°57'0 0.0
2018-Mar-24 20:28N 29°49' W 093°57'0 0.0
2018-Mar-24 19:58N 29°49' W 093°57'0 0.0
2018-Mar-24 19:28N 29°49' W 093°57'0 0.1
2018-Mar-24 19:00N 29°49' W 093°57'1 2.8
2018-Mar-24 18:30N 29°48' W 093°57'4 7.5
2018-Mar-24 18:00N 29°46' W 093°54'4 8.7
2018-Mar-24 17:30N 29°42' W 093°51'510.2
2018-Mar-24 17:00N 29°37' W 093°49'611.0
2018-Mar-24 16:30N 29°33' W 093°45'510.8
2018-Mar-24 16:00N 29°29' W 093°40'5 9.5
2018-Mar-24 15:28N 29°24' W 093°39'0 0.3
2018-Mar-24 13:57N 29°24' W 093°38'0 0.0
2018-Mar-24 13:06N 29°24' W 093°38'0 0.0
2018-Mar-24 12:00N 29°24' W 093°38'0 0.0
2018-Mar-24 11:24N 29°24' W 093°38'0 0.0
2018-Mar-24 11:00N 29°24' W 093°38'0 0.0
2018-Mar-24 08:51N 29°24' W 093°38'0 0.0
2018-Mar-24 08:15N 29°24' W 093°38'0 0.0
2018-Mar-24 07:54N 29°24' W 093°38'  

Dump ship's entire track history